Time;durP1;ratioP1;P1;durP2;ratioP2;P2;SDS_P1;SDS_P2;PMS_P1;PMS_P2;Temp;Humidity;BMP_temperature;BMP_pressure;BME280_temperature;BME280_humidity;BME280_pressure;Samples;Min_cycle;Max_cycle;Signal;HPM_P1;HPM_P2
2021/11/09 00:00:08;;;;;;;1.85;0.15;;;;;;;;;;5056181;28;20017;-68
2021/11/09 00:02:34;;;;;;;0.40;0.25;;;;;;;;;;5056161;28;20073;-66
2021/11/09 00:05:01;;;;;;;1.55;0.20;;;;;;;;;;5055947;28;20045;-66
2021/11/09 00:10:21;;;;;;;0.10;0.10;;;;;;;;;;4975023;28;20135;-67
2021/11/09 00:12:49;;;;;;;0.98;0.10;;;;;;;;;;4974938;28;20039;-67
2021/11/09 00:15:16;;;;;;;3.55;0.60;;;;;;;;;;4975067;28;20122;-69
2021/11/09 00:17:42;;;;;;;2.90;0.43;;;;;;;;;;4974613;28;20713;-67
2021/11/09 00:20:08;;;;;;;1.58;0.10;;;;;;;;;;4974926;28;20030;-66
2021/11/09 00:22:34;;;;;;;1.15;0.20;;;;;;;;;;4974937;28;20022;-67
2021/11/09 00:24:59;;;;;;;1.38;0.22;;;;;;;;;;4974562;28;20553;-68
2021/11/09 00:27:25;;;;;;;2.72;0.35;;;;;;;;;;4974854;28;20083;-66
2021/11/09 00:29:50;;;;;;;2.00;0.13;;;;;;;;;;4974547;28;20426;-67
2021/11/09 00:32:16;;;;;;;1.90;0.22;;;;;;;;;;4974598;28;20026;-67
2021/11/09 00:34:42;;;;;;;2.45;0.30;;;;;;;;;;4974756;28;20030;-68
2021/11/09 00:37:07;;;;;;;1.88;0.10;;;;;;;;;;4974531;28;20062;-67
2021/11/09 00:39:33;;;;;;;0.70;0.27;;;;;;;;;;4974350;28;20583;-68
2021/11/09 00:41:58;;;;;;;4.93;0.35;;;;;;;;;;4974429;28;20253;-68
2021/11/09 00:44:32;;;;;;;0.50;0.30;;;;;;;;;;4958373;28;20027;-68
2021/11/09 00:46:58;;;;;;;4.15;0.47;;;;;;;;;;5022232;28;20037;-67
2021/11/09 00:49:24;;;;;;;2.40;0.55;;;;;;;;;;5055281;28;20020;-68
2021/11/09 00:51:50;;;;;;;0.73;0.20;;;;;;;;;;5055103;28;20475;-68
2021/11/09 00:54:16;;;;;;;2.72;0.10;;;;;;;;;;5055405;28;20016;-66
2021/11/09 00:56:41;;;;;;;1.40;0.15;;;;;;;;;;5054836;28;20099;-67
2021/11/09 00:59:07;;;;;;;1.33;0.22;;;;;;;;;;5055040;28;20412;-68
2021/11/09 01:01:32;;;;;;;1.55;0.10;;;;;;;;;;5055017;28;20444;-68
2021/11/09 01:03:58;;;;;;;2.22;0.25;;;;;;;;;;5054953;28;20037;-67
2021/11/09 01:06:25;;;;;;;4.10;0.65;;;;;;;;;;5054904;28;20017;-68
2021/11/09 01:08:50;;;;;;;1.88;0.30;;;;;;;;;;5054850;28;20511;-68
2021/11/09 01:11:15;;;;;;;0.82;0.20;;;;;;;;;;5054862;28;20032;-67
2021/11/09 01:13:42;;;;;;;0.95;0.10;;;;;;;;;;5054729;28;20024;-67
2021/11/09 01:16:09;;;;;;;2.55;0.55;;;;;;;;;;5054681;28;20096;-68
2021/11/09 01:18:42;;;;;;;0.70;0.30;;;;;;;;;;5054773;28;20032;-68
2021/11/09 01:21:12;;;;;;;1.08;0.40;;;;;;;;;;5053831;28;20394;-66
2021/11/09 01:23:38;;;;;;;2.08;0.40;;;;;;;;;;5054762;28;20474;-67
2021/11/09 01:26:04;;;;;;;1.15;0.20;;;;;;;;;;5054473;28;20043;-67
2021/11/09 01:28:29;;;;;;;3.40;0.30;;;;;;;;;;5054894;28;20148;-68
2021/11/09 01:30:59;;;;;;;3.03;0.32;;;;;;;;;;5053957;28;20131;-67
2021/11/09 01:33:24;;;;;;;0.13;0.10;;;;;;;;;;5054636;28;20016;-68
2021/11/09 01:35:49;;;;;;;0.68;0.13;;;;;;;;;;5053962;28;20032;-68
2021/11/09 01:38:14;;;;;;;1.20;0.45;;;;;;;;;;5036459;28;20071;-67
2021/11/09 01:40:41;;;;;;;1.30;0.30;;;;;;;;;;5054281;28;20021;-68
2021/11/09 01:43:09;;;;;;;2.33;1.15;;;;;;;;;;5036422;28;20024;-68
2021/11/09 01:45:36;;;;;;;1.58;0.30;;;;;;;;;;5036460;28;20036;-68
2021/11/09 01:48:01;;;;;;;0.80;0.10;;;;;;;;;;5054246;28;20112;-66
2021/11/09 01:50:29;;;;;;;0.52;0.20;;;;;;;;;;5053989;28;20092;-67
2021/11/09 01:52:55;;;;;;;1.85;0.20;;;;;;;;;;5036012;28;20598;-68
2021/11/09 01:55:23;;;;;;;2.67;1.08;;;;;;;;;;5054147;28;20021;-68
2021/11/09 01:57:48;;;;;;;0.75;0.20;;;;;;;;;;5053843;28;20025;-66
2021/11/09 02:00:18;;;;;;;1.27;0.17;;;;;;;;;;5054018;28;20108;-67
2021/11/09 02:02:43;;;;;;;0.20;0.00;;;;;;;;;;5032541;28;20518;-68
2021/11/09 02:05:09;;;;;;;1.98;0.35;;;;;;;;;;5034082;28;20018;-67
2021/11/09 02:07:41;;;;;;;0.52;0.10;;;;;;;;;;5032533;28;20644;-68
2021/11/09 02:10:08;;;;;;;0.98;0.30;;;;;;;;;;5034119;28;20052;-67
2021/11/09 02:12:33;;;;;;;0.45;0.13;;;;;;;;;;5033954;28;20022;-68
2021/11/09 02:14:59;;;;;;;2.30;0.20;;;;;;;;;;5033566;28;20009;-67
2021/11/09 02:17:24;;;;;;;0.98;0.20;;;;;;;;;;5033866;28;20290;-67
2021/11/09 02:19:50;;;;;;;1.55;0.30;;;;;;;;;;5033408;28;20063;-68
2021/11/09 02:22:15;;;;;;;2.05;0.10;;;;;;;;;;5033925;28;20075;-66
2021/11/09 02:24:41;;;;;;;0.55;0.10;;;;;;;;;;5032299;28;20025;-66
2021/11/09 02:27:07;;;;;;;0.80;0.15;;;;;;;;;;5033513;28;20021;-67
2021/11/09 02:29:33;;;;;;;0.60;0.00;;;;;;;;;;5033760;28;20369;-68
2021/11/09 02:32:03;;;;;;;0.77;0.20;;;;;;;;;;5033391;28;20088;-66
2021/11/09 02:34:28;;;;;;;2.08;0.17;;;;;;;;;;5033642;28;20101;-67
2021/11/09 02:36:54;;;;;;;2.47;0.47;;;;;;;;;;5033578;28;20096;-68
2021/11/09 02:39:20;;;;;;;0.88;0.38;;;;;;;;;;5033638;28;20108;-68
2021/11/09 02:41:46;;;;;;;1.35;0.30;;;;;;;;;;5033226;28;20394;-66
2021/11/09 02:44:11;;;;;;;1.58;0.10;;;;;;;;;;5033418;28;20029;-67
2021/11/09 02:46:48;;;;;;;2.03;0.20;;;;;;;;;;5033535;28;20097;-67
2021/11/09 02:49:20;;;;;;;0.73;0.30;;;;;;;;;;5033453;28;20017;-67
2021/11/09 02:54:24;;;;;;;0.63;0.20;;;;;;;;;;5033752;28;20017;-68
2021/11/09 02:57:03;;;;;;;2.45;0.68;;;;;;;;;;5032943;28;20071;-67
2021/11/09 03:05:02;;;;;;;2.53;0.55;;;;;;;;;;5053181;28;20476;-66
2021/11/09 03:07:36;;;;;;;2.15;0.20;;;;;;;;;;5053128;28;20099;-68
2021/11/09 03:10:08;;;;;;;1.30;0.20;;;;;;;;;;5053028;28;20108;-68
2021/11/09 03:12:37;;;;;;;0.93;0.25;;;;;;;;;;5035597;28;20540;-71
2021/11/09 03:15:05;;;;;;;0.30;0.10;;;;;;;;;;5035571;28;20112;-71
2021/11/09 03:17:53;;;;;;;2.22;0.38;;;;;;;;;;5053278;28;20352;-71
2021/11/09 03:20:31;;;;;;;0.63;0.10;;;;;;;;;;5053615;28;20123;-71
2021/11/09 03:40:15;;;;;;;0.93;0.20;;;;;;;;;;5053858;28;20412;-71
2021/11/09 03:45:46;;;;;;;1.50;0.20;;;;;;;;;;4976435;28;20065;-71
2021/11/09 03:48:21;;;;;;;1.98;0.32;;;;;;;;;;4976405;28;20026;-71
2021/11/09 03:50:49;;;;;;;1.38;0.38;;;;;;;;;;4976176;28;20023;-71
2021/11/09 03:53:18;;;;;;;1.27;0.52;;;;;;;;;;4976172;28;20425;-72
2021/11/09 03:58:42;;;;;;;3.92;0.15;;;;;;;;;;4976137;28;20417;-71
2021/11/09 04:01:14;;;;;;;0.50;0.10;;;;;;;;;;4971967;28;20490;-71
2021/11/09 04:04:02;;;;;;;0.32;0.17;;;;;;;;;;4956869;29;20033;-71
2021/11/09 04:06:36;;;;;;;0.70;0.10;;;;;;;;;;4956785;29;20035;-71
2021/11/09 04:14:25;;;;;;;0.10;0.00;;;;;;;;;;4956491;29;20032;-71
2021/11/09 04:17:05;;;;;;;1.85;0.25;;;;;;;;;;4956486;29;20197;-71
2021/11/09 04:23:16;;;;;;;1.55;0.30;;;;;;;;;;5016971;28;20165;-71
2021/11/09 04:47:54;;;;;;;1.77;0.30;;;;;;;;;;5016376;28;20025;-70
2021/11/09 05:08:54;;;;;;;2.65;0.80;;;;;;;;;;5036009;28;20108;-72
2021/11/09 05:11:20;;;;;;;0.47;0.20;;;;;;;;;;5035864;28;20009;-71
2021/11/09 05:13:45;;;;;;;1.02;0.30;;;;;;;;;;5035569;28;20460;-72
2021/11/09 05:16:15;;;;;;;1.15;0.35;;;;;;;;;;5035811;28;20029;-71
2021/11/09 05:18:42;;;;;;;1.00;0.30;;;;;;;;;;5035510;28;20017;-71
2021/11/09 05:21:07;;;;;;;0.32;0.10;;;;;;;;;;5035487;28;20022;-71
2021/11/09 05:23:34;;;;;;;1.35;0.28;;;;;;;;;;5035485;28;20025;-72
2021/11/09 05:26:00;;;;;;;1.40;0.50;;;;;;;;;;5035317;28;20026;-71
2021/11/09 05:28:26;;;;;;;0.60;0.10;;;;;;;;;;5035383;28;20033;-71
2021/11/09 05:30:52;;;;;;;0.95;0.40;;;;;;;;;;5034137;28;20460;-72
2021/11/09 05:33:19;;;;;;;2.00;0.40;;;;;;;;;;5035296;28;20014;-71
2021/11/09 05:35:45;;;;;;;1.25;0.20;;;;;;;;;;5033901;28;20494;-71
2021/11/09 05:38:13;;;;;;;0.85;0.10;;;;;;;;;;5035149;28;20026;-71
2021/11/09 05:40:59;;;;;;;0.85;0.00;;;;;;;;;;5035226;28;20464;-71
2021/11/09 05:43:27;;;;;;;0.30;0.20;;;;;;;;;;5035203;28;20033;-71
2021/11/09 05:45:53;;;;;;;1.17;0.25;;;;;;;;;;5034895;28;20017;-71
2021/11/09 05:48:20;;;;;;;0.82;0.47;;;;;;;;;;5035228;28;20033;-71
2021/11/09 05:50:47;;;;;;;1.33;0.20;;;;;;;;;;5034942;28;20009;-72
2021/11/09 05:53:14;;;;;;;0.88;0.10;;;;;;;;;;5035213;28;20021;-71
2021/11/09 05:55:39;;;;;;;0.63;0.10;;;;;;;;;;5034905;28;20018;-71
2021/11/09 05:58:23;;;;;;;1.42;0.15;;;;;;;;;;5034839;28;20096;-71
2021/11/09 06:00:48;;;;;;;2.42;0.40;;;;;;;;;;5035412;28;20029;-71
2021/11/09 06:03:14;;;;;;;1.35;0.30;;;;;;;;;;5054558;28;20021;-71
2021/11/09 06:05:46;;;;;;;1.33;0.25;;;;;;;;;;5036016;28;20521;-71
2021/11/09 06:08:12;;;;;;;0.85;0.10;;;;;;;;;;5054889;28;20424;-71
2021/11/09 06:11:04;;;;;;;0.52;0.25;;;;;;;;;;5054499;28;20041;-71
2021/11/09 06:13:30;;;;;;;0.65;0.20;;;;;;;;;;4973639;28;20118;-71
2021/11/09 06:15:57;;;;;;;1.63;0.50;;;;;;;;;;4957489;28;20114;-71
2021/11/09 06:18:22;;;;;;;0.95;0.10;;;;;;;;;;4973522;28;20049;-71
2021/11/09 06:20:48;;;;;;;0.73;0.00;;;;;;;;;;4973576;28;20023;-71
2021/11/09 06:23:13;;;;;;;1.58;0.45;;;;;;;;;;4973711;28;20114;-71
2021/11/09 06:25:49;;;;;;;2.95;0.10;;;;;;;;;;4973171;28;20035;-71
2021/11/09 06:28:23;;;;;;;1.55;0.13;;;;;;;;;;4973550;28;20101;-71
2021/11/09 06:30:49;;;;;;;1.02;0.15;;;;;;;;;;4957119;28;20034;-72
2021/11/09 06:33:17;;;;;;;0.57;0.00;;;;;;;;;;4957664;28;20481;-71
2021/11/09 06:35:44;;;;;;;1.08;0.10;;;;;;;;;;4973245;28;20045;-71
2021/11/09 06:38:10;;;;;;;0.90;0.20;;;;;;;;;;4973290;28;20022;-71
2021/11/09 06:40:38;;;;;;;0.22;0.00;;;;;;;;;;4973357;28;20378;-72
2021/11/09 06:43:06;;;;;;;0.80;0.20;;;;;;;;;;4973200;28;20428;-71
2021/11/09 06:45:32;;;;;;;1.67;0.20;;;;;;;;;;4973193;28;20069;-71
2021/11/09 06:47:58;;;;;;;0.52;0.20;;;;;;;;;;4973044;28;20019;-71
2021/11/09 06:50:32;;;;;;;1.10;0.17;;;;;;;;;;5017482;28;20025;-72
2021/11/09 06:52:59;;;;;;;4.25;0.70;;;;;;;;;;5053558;28;20041;-70
2021/11/09 06:55:27;;;;;;;2.00;0.32;;;;;;;;;;5054012;28;20048;-72
2021/11/09 06:57:53;;;;;;;1.33;0.28;;;;;;;;;;5053705;28;20021;-72
2021/11/09 07:00:22;;;;;;;2.90;0.40;;;;;;;;;;5054004;28;20059;-71
2021/11/09 07:02:48;;;;;;;1.17;0.10;;;;;;;;;;5035683;28;20045;-71
2021/11/09 07:05:22;;;;;;;0.77;0.10;;;;;;;;;;5036257;28;20024;-72
2021/11/09 07:07:53;;;;;;;2.67;0.20;;;;;;;;;;5035666;28;20382;-71
2021/11/09 07:10:18;;;;;;;1.83;0.10;;;;;;;;;;5053783;28;20104;-71
2021/11/09 07:12:45;;;;;;;1.77;0.20;;;;;;;;;;5053534;28;20069;-71
2021/11/09 07:15:11;;;;;;;1.95;0.57;;;;;;;;;;5053842;28;20048;-72
2021/11/09 07:17:39;;;;;;;0.52;0.10;;;;;;;;;;5053644;28;20021;-71
2021/11/09 07:20:06;;;;;;;2.08;0.40;;;;;;;;;;5057755;28;20051;-72
2021/11/09 07:22:36;;;;;;;0.65;0.13;;;;;;;;;;5057748;28;20371;-72
2021/11/09 07:25:02;;;;;;;4.35;0.35;;;;;;;;;;5057748;28;20036;-72
2021/11/09 07:27:27;;;;;;;0.13;0.00;;;;;;;;;;5057682;28;20451;-71
2021/11/09 07:29:57;;;;;;;0.68;0.10;;;;;;;;;;5057515;28;20080;-71
2021/11/09 07:32:25;;;;;;;1.35;0.10;;;;;;;;;;5039595;28;20021;-72
2021/11/09 07:34:58;;;;;;;1.52;0.20;;;;;;;;;;5057567;28;20387;-71
2021/11/09 07:37:27;;;;;;;0.47;0.37;;;;;;;;;;5057470;28;20101;-71
2021/11/09 07:39:52;;;;;;;1.10;0.10;;;;;;;;;;5057262;28;20284;-71
2021/11/09 07:42:20;;;;;;;0.60;0.10;;;;;;;;;;5057569;28;20021;-71
2021/11/09 07:44:45;;;;;;;0.82;0.20;;;;;;;;;;5039188;28;20025;-71
2021/11/09 07:47:11;;;;;;;1.88;0.22;;;;;;;;;;5057206;28;20083;-71
2021/11/09 07:49:37;;;;;;;1.48;0.13;;;;;;;;;;5057151;28;20016;-72
2021/11/09 07:52:05;;;;;;;0.90;0.20;;;;;;;;;;5056990;28;20063;-71
2021/11/09 07:54:34;;;;;;;1.35;0.40;;;;;;;;;;5057032;28;20017;-72
2021/11/09 07:57:07;;;;;;;0.93;0.25;;;;;;;;;;5056701;28;20374;-73
2021/11/09 08:02:01;;;;;;;1.50;0.32;;;;;;;;;;5056719;28;20132;-72
2021/11/09 08:04:44;;;;;;;1.15;0.10;;;;;;;;;;5056674;28;20044;-72
2021/11/09 08:09:35;;;;;;;0.40;0.10;;;;;;;;;;5056770;28;20025;-71
2021/11/09 08:12:16;;;;;;;1.05;0.10;;;;;;;;;;5056712;28;20407;-71
2021/11/09 08:14:41;;;;;;;1.63;0.10;;;;;;;;;;5038699;28;20029;-72
2021/11/09 08:17:16;;;;;;;0.65;0.10;;;;;;;;;;5056605;28;20066;-71
2021/11/09 08:19:43;;;;;;;1.38;0.20;;;;;;;;;;5056487;28;20051;-71
2021/11/09 08:22:23;;;;;;;3.67;0.35;;;;;;;;;;5056753;28;20511;-71
2021/11/09 08:24:50;;;;;;;0.73;0.20;;;;;;;;;;5056357;28;20017;-71
2021/11/09 08:27:21;;;;;;;1.17;0.38;;;;;;;;;;5038476;28;20028;-71
2021/11/09 08:29:50;;;;;;;0.32;0.00;;;;;;;;;;5037979;28;20211;-71
2021/11/09 08:32:16;;;;;;;0.55;0.10;;;;;;;;;;5056288;28;20471;-71
2021/11/09 08:34:42;;;;;;;0.73;0.20;;;;;;;;;;5056354;28;20482;-71
2021/11/09 08:37:09;;;;;;;1.50;0.20;;;;;;;;;;5056140;28;20025;-71
2021/11/09 08:39:38;;;;;;;2.28;0.20;;;;;;;;;;5038208;28;20095;-72
2021/11/09 08:44:35;;;;;;;0.90;0.10;;;;;;;;;;5056313;28;20029;-71
2021/11/09 08:47:01;;;;;;;2.25;0.40;;;;;;;;;;5055950;28;20017;-71
2021/11/09 08:49:29;;;;;;;1.52;0.15;;;;;;;;;;5038235;28;20112;-72
2021/11/09 08:51:56;;;;;;;0.20;0.10;;;;;;;;;;5055886;28;20029;-71
2021/11/09 09:04:56;;;;;;;4.30;0.40;;;;;;;;;;4955040;29;20038;-71
2021/11/09 09:07:22;;;;;;;1.02;0.30;;;;;;;;;;4955374;29;20035;-71
2021/11/09 09:09:48;;;;;;;2.97;0.13;;;;;;;;;;4955373;29;20030;-72
2021/11/09 09:12:13;;;;;;;0.88;0.20;;;;;;;;;;4954771;29;20035;-69
2021/11/09 09:14:38;;;;;;;0.47;0.10;;;;;;;;;;4954915;29;20058;-69
2021/11/09 09:17:04;;;;;;;1.35;0.10;;;;;;;;;;4954308;29;20073;-68
2021/11/09 09:19:40;;;;;;;0.98;0.50;;;;;;;;;;4954978;29;20466;-69
2021/11/09 09:22:09;;;;;;;1.95;0.20;;;;;;;;;;4954742;29;20670;-69
2021/11/09 09:29:40;;;;;;;1.30;0.10;;;;;;;;;;4954580;29;20043;-69
2021/11/09 09:32:37;;;;;;;2.70;0.30;;;;;;;;;;4954953;28;20059;-69
2021/11/09 09:57:02;;;;;;;0.85;0.15;;;;;;;;;;5054129;28;20051;-69
2021/11/09 09:59:28;;;;;;;0.90;0.10;;;;;;;;;;5054200;28;20083;-67
2021/11/09 10:02:14;;;;;;;3.92;0.50;;;;;;;;;;5053749;28;20045;-68
2021/11/09 10:04:50;;;;;;;2.50;0.30;;;;;;;;;;5053994;28;20021;-69
2021/11/09 10:07:26;;;;;;;0.80;0.08;;;;;;;;;;5036092;28;20060;-68
2021/11/09 10:09:52;;;;;;;1.83;0.08;;;;;;;;;;5053821;28;20020;-69
2021/11/09 10:12:17;;;;;;;2.03;0.40;;;;;;;;;;5053996;28;20402;-69
2021/11/09 10:14:44;;;;;;;1.85;0.10;;;;;;;;;;5053885;28;20091;-68
2021/11/09 10:17:12;;;;;;;2.17;0.20;;;;;;;;;;5053892;28;20075;-69
2021/11/09 10:19:39;;;;;;;2.00;0.30;;;;;;;;;;5053708;28;20547;-69
2021/11/09 10:22:34;;;;;;;2.95;0.25;;;;;;;;;;5053941;28;20463;-69
2021/11/09 10:25:04;;;;;;;2.20;0.20;;;;;;;;;;4972410;28;20046;-69
2021/11/09 10:27:30;;;;;;;1.38;0.10;;;;;;;;;;4972930;28;20410;-70
2021/11/09 10:29:56;;;;;;;0.43;0.10;;;;;;;;;;4972651;28;20031;-68
2021/11/09 10:32:26;;;;;;;2.72;0.80;;;;;;;;;;4972872;28;20030;-68
2021/11/09 10:34:53;;;;;;;2.65;0.30;;;;;;;;;;4976968;28;20557;-70
2021/11/09 10:37:23;;;;;;;1.23;0.10;;;;;;;;;;4985097;28;20027;-71
2021/11/09 10:39:52;;;;;;;1.80;0.20;;;;;;;;;;4972448;28;20434;-69
2021/11/09 10:42:23;;;;;;;1.42;0.30;;;;;;;;;;4972979;28;20039;-70
2021/11/09 10:44:59;;;;;;;2.50;0.20;;;;;;;;;;4973107;28;20553;-70
2021/11/09 10:47:26;;;;;;;2.47;0.32;;;;;;;;;;4972514;28;20058;-70
2021/11/09 10:49:55;;;;;;;0.65;0.20;;;;;;;;;;4972177;28;20027;-70
2021/11/09 10:52:26;;;;;;;1.30;0.20;;;;;;;;;;4972715;28;20026;-69
2021/11/09 10:55:07;;;;;;;1.42;0.20;;;;;;;;;;4972730;28;20385;-69
2021/11/09 11:00:58;;;;;;;1.70;0.20;;;;;;;;;;5002607;28;20111;-70
2021/11/09 11:06:12;;;;;;;2.88;0.35;;;;;;;;;;5053705;28;20430;-70
2021/11/09 11:08:48;;;;;;;3.08;0.32;;;;;;;;;;5053562;28;20008;-72
2021/11/09 11:11:17;;;;;;;1.65;0.38;;;;;;;;;;5053380;28;20348;-69
2021/11/09 11:13:43;;;;;;;1.70;0.40;;;;;;;;;;5052956;28;20426;-69
2021/11/09 11:16:21;;;;;;;1.63;0.13;;;;;;;;;;5053078;28;20086;-69
2021/11/09 11:18:54;;;;;;;2.10;0.20;;;;;;;;;;5053132;28;20509;-69
2021/11/09 11:21:21;;;;;;;1.13;0.30;;;;;;;;;;5035442;28;20459;-69
2021/11/09 11:23:47;;;;;;;0.73;0.10;;;;;;;;;;5035507;28;20017;-69
2021/11/09 11:26:12;;;;;;;1.23;0.17;;;;;;;;;;5053036;28;20031;-70
2021/11/09 11:28:40;;;;;;;0.93;0.17;;;;;;;;;;5053336;28;20036;-69
2021/11/09 11:31:06;;;;;;;0.63;0.13;;;;;;;;;;5053200;28;20036;-70
2021/11/09 11:33:32;;;;;;;1.75;0.35;;;;;;;;;;5053197;28;20059;-70
2021/11/09 11:36:04;;;;;;;0.85;0.30;;;;;;;;;;5053001;28;20021;-69
2021/11/09 11:38:31;;;;;;;0.80;0.47;;;;;;;;;;5035325;28;20480;-69
2021/11/09 11:40:58;;;;;;;3.42;0.43;;;;;;;;;;5053181;28;20070;-70
2021/11/09 11:43:41;;;;;;;0.60;0.10;;;;;;;;;;5035639;28;20022;-70
2021/11/09 11:46:08;;;;;;;1.40;0.33;;;;;;;;;;5052858;28;20040;-69
2021/11/09 11:48:52;;;;;;;1.42;0.30;;;;;;;;;;5053146;28;20028;-70
2021/11/09 11:51:27;;;;;;;2.03;0.30;;;;;;;;;;5053114;28;20068;-70
2021/11/09 11:53:56;;;;;;;2.42;0.20;;;;;;;;;;5035103;28;20017;-69
2021/11/09 11:56:42;;;;;;;0.47;0.10;;;;;;;;;;5053271;28;20025;-70
2021/11/09 11:59:28;;;;;;;1.77;0.52;;;;;;;;;;5034816;28;20039;-70
2021/11/09 12:01:58;;;;;;;1.65;0.17;;;;;;;;;;4967521;28;20046;-70
2021/11/09 12:07:54;;;;;;;1.02;0.20;;;;;;;;;;4939940;29;20027;-70
2021/11/09 12:10:20;;;;;;;2.50;0.30;;;;;;;;;;4938289;29;20051;-70
2021/11/09 12:12:58;;;;;;;1.67;0.10;;;;;;;;;;4947654;29;20036;-69
2021/11/09 12:15:40;;;;;;;1.27;0.10;;;;;;;;;;4936016;29;20020;-70
2021/11/09 12:18:26;;;;;;;1.10;0.30;;;;;;;;;;4953843;29;20042;-70
2021/11/09 12:20:53;;;;;;;3.03;0.50;;;;;;;;;;4927653;29;20033;-71
2021/11/09 12:23:19;;;;;;;2.13;0.77;;;;;;;;;;4945677;29;20110;-70
2021/11/09 12:25:45;;;;;;;0.57;0.15;;;;;;;;;;4954140;29;20126;-70
2021/11/09 12:28:12;;;;;;;0.25;0.08;;;;;;;;;;4955203;29;20058;-69
2021/11/09 12:30:43;;;;;;;3.40;0.43;;;;;;;;;;4955931;29;20031;-70
2021/11/09 12:33:28;;;;;;;1.98;0.20;;;;;;;;;;4955976;29;20071;-70
2021/11/09 12:35:53;;;;;;;;;;;;;;;;;;4955884;28;20430;-69
2021/11/09 12:38:21;;;;;;;0.65;0.20;;;;;;;;;;4964390;28;20328;-70
2021/11/09 12:40:57;;;;;;;3.17;1.02;;;;;;;;;;5045554;28;20028;-70
2021/11/09 12:43:31;;;;;;;1.75;0.20;;;;;;;;;;5040345;28;20056;-69
2021/11/09 12:46:06;;;;;;;0.37;0.10;;;;;;;;;;5055485;28;20112;-70
2021/11/09 12:48:56;;;;;;;1.17;0.20;;;;;;;;;;5055717;28;20020;-70
2021/11/09 12:51:23;;;;;;;1.63;0.30;;;;;;;;;;5055727;28;20100;-70
2021/11/09 12:53:50;;;;;;;1.42;0.10;;;;;;;;;;5057484;28;20013;-70
2021/11/09 12:56:22;;;;;;;0.70;0.25;;;;;;;;;;5055795;28;20506;-70
2021/11/09 12:58:50;;;;;;;1.20;0.15;;;;;;;;;;5055429;28;20021;-70
2021/11/09 13:04:00;;;;;;;1.05;0.20;;;;;;;;;;5055807;28;20025;-70
2021/11/09 13:06:49;;;;;;;2.13;0.17;;;;;;;;;;5055358;28;20559;-69
2021/11/09 13:09:31;;;;;;;2.38;0.13;;;;;;;;;;5054752;28;20032;-70
2021/11/09 13:12:02;;;;;;;1.95;0.30;;;;;;;;;;5054316;28;20367;-69
2021/11/09 13:14:33;;;;;;;3.00;0.28;;;;;;;;;;5039529;28;20028;-70
2021/11/09 13:18:05;;;;;;;4.03;0.32;;;;;;;;;;5054066;28;20529;-70
2021/11/09 13:22:57;;;;;;;4.53;0.45;;;;;;;;;;4954910;29;20396;-70
2021/11/09 13:25:34;;;;;;;0.50;0.20;;;;;;;;;;4954441;29;20031;-69
2021/11/09 13:28:02;;;;;;;0.68;0.22;;;;;;;;;;4954755;29;20039;-70
2021/11/09 13:30:28;;;;;;;0.65;0.20;;;;;;;;;;4954542;29;20034;-71
2021/11/09 13:32:55;;;;;;;1.45;0.20;;;;;;;;;;4956191;28;20026;-70
2021/11/09 13:35:25;;;;;;;0.60;0.10;;;;;;;;;;4955029;28;20216;-67
2021/11/09 13:38:12;;;;;;;1.40;0.13;;;;;;;;;;4954681;28;20119;-67
2021/11/09 13:40:41;;;;;;;2.63;0.65;;;;;;;;;;4953537;28;20379;-67
2021/11/09 13:43:07;;;;;;;4.32;0.30;;;;;;;;;;4943314;29;20136;-68
2021/11/09 13:45:33;;;;;;;0.10;0.10;;;;;;;;;;4944173;28;20026;-69
2021/11/09 13:47:59;;;;;;;3.22;0.52;;;;;;;;;;4943794;28;20039;-69
2021/11/09 13:50:27;;;;;;;2.05;0.20;;;;;;;;;;4951016;28;20019;-69
2021/11/09 13:52:53;;;;;;;0.38;0.10;;;;;;;;;;4952376;29;20085;-68
2021/11/09 13:55:20;;;;;;;1.75;0.63;;;;;;;;;;4992476;28;20036;-68
2021/11/09 13:57:46;;;;;;;1.90;0.15;;;;;;;;;;5053713;28;20021;-69
2021/11/09 14:00:17;;;;;;;1.38;0.20;;;;;;;;;;5053751;28;20051;-68
2021/11/09 14:02:46;;;;;;;0.90;0.10;;;;;;;;;;5052801;28;20052;-68
2021/11/09 14:07:52;;;;;;;1.95;0.30;;;;;;;;;;5052630;28;20013;-73
2021/11/09 14:12:54;;;;;;;3.58;0.20;;;;;;;;;;5056188;28;20391;-65
2021/11/09 14:15:38;;;;;;;2.35;0.20;;;;;;;;;;5053213;28;20124;-64
2021/11/09 14:18:14;;;;;;;4.07;0.30;;;;;;;;;;5052515;28;20036;-65
2021/11/09 14:20:55;;;;;;;2.33;0.20;;;;;;;;;;5052327;28;20067;-64
2021/11/09 14:23:28;;;;;;;3.83;0.50;;;;;;;;;;5065937;28;20029;-64
2021/11/09 14:25:53;;;;;;;0.32;0.10;;;;;;;;;;5058406;28;20017;-65
2021/11/09 14:28:35;;;;;;;3.90;0.27;;;;;;;;;;5060873;28;20028;-65
2021/11/09 14:31:10;;;;;;;2.80;0.50;;;;;;;;;;5059707;28;20250;-67
2021/11/09 14:33:37;;;;;;;2.05;0.17;;;;;;;;;;5035426;28;20020;-65
2021/11/09 14:36:19;;;;;;;1.55;0.10;;;;;;;;;;5051718;28;20024;-65
2021/11/09 14:38:44;;;;;;;1.42;0.20;;;;;;;;;;5039727;28;20017;-65
2021/11/09 14:41:21;;;;;;;2.05;0.55;;;;;;;;;;5053351;28;20028;-65
2021/11/09 14:43:57;;;;;;;1.02;0.10;;;;;;;;;;5051406;28;20024;-65
2021/11/09 14:46:27;;;;;;;0.47;0.20;;;;;;;;;;5051736;28;20132;-64
2021/11/09 14:48:59;;;;;;;2.00;0.17;;;;;;;;;;5052995;28;20426;-65
2021/11/09 14:51:31;;;;;;;1.13;0.20;;;;;;;;;;5052653;28;20009;-64
2021/11/09 14:54:00;;;;;;;1.73;0.10;;;;;;;;;;5052956;28;20019;-66
2021/11/09 14:56:32;;;;;;;1.65;0.20;;;;;;;;;;5052295;28;20452;-72
2021/11/09 14:58:59;;;;;;;1.83;0.30;;;;;;;;;;5052253;28;20033;-67
2021/11/09 15:04:07;;;;;;;0.88;0.20;;;;;;;;;;5053469;28;20025;-71
2021/11/09 15:09:50;;;;;;;2.20;0.20;;;;;;;;;;4967505;28;20473;-71
2021/11/09 15:12:59;;;;;;;2.03;0.40;;;;;;;;;;4971253;28;20042;-71
2021/11/09 15:29:21;;;;;;;0.80;0.10;;;;;;;;;;4952666;29;20020;-65
2021/11/09 15:31:53;;;;;;;4.18;0.32;;;;;;;;;;4975286;28;20449;-70
2021/11/09 15:37:22;;;;;;;0.38;0.25;;;;;;;;;;4952360;29;20035;-67
2021/11/09 15:39:47;;;;;;;0.55;0.00;;;;;;;;;;4969919;28;20065;-65
2021/11/09 15:42:13;;;;;;;0.95;0.10;;;;;;;;;;4963839;28;20031;-69
2021/11/09 15:44:39;;;;;;;0.57;0.10;;;;;;;;;;5040220;28;20036;-69
2021/11/09 15:47:05;;;;;;;2.47;0.45;;;;;;;;;;5039416;28;20038;-69
2021/11/09 15:49:30;;;;;;;2.28;0.40;;;;;;;;;;5065600;28;20021;-65
2021/11/09 15:51:58;;;;;;;1.45;0.20;;;;;;;;;;5058001;28;20056;-71
2021/11/09 15:54:24;;;;;;;7.10;0.40;;;;;;;;;;5055981;28;20032;-66
2021/11/09 15:56:50;;;;;;;3.33;0.35;;;;;;;;;;5055590;28;20013;-66
2021/11/09 15:59:15;;;;;;;3.22;0.47;;;;;;;;;;5055366;28;20029;-66
2021/11/09 16:01:40;;;;;;;5.38;0.40;;;;;;;;;;5055351;28;20385;-67
2021/11/09 16:04:09;;;;;;;0.95;0.43;;;;;;;;;;5053880;28;20391;-67
2021/11/09 16:06:35;;;;;;;0.88;0.30;;;;;;;;;;5054230;28;20056;-66
2021/11/09 16:09:01;;;;;;;1.50;0.35;;;;;;;;;;5054827;28;20040;-67
2021/11/09 16:11:31;;;;;;;1.15;0.45;;;;;;;;;;5038070;28;20068;-66
2021/11/09 16:13:57;;;;;;;1.60;0.20;;;;;;;;;;5055555;28;20059;-66
2021/11/09 16:16:22;;;;;;;0.80;0.10;;;;;;;;;;5055930;28;20377;-67
2021/11/09 16:18:48;;;;;;;0.15;0.10;;;;;;;;;;5055508;28;20456;-69
2021/11/09 16:21:13;;;;;;;2.67;0.30;;;;;;;;;;5055841;28;20028;-67
2021/11/09 16:23:38;;;;;;;2.75;0.65;;;;;;;;;;5055755;28;20028;-67
2021/11/09 16:26:03;;;;;;;0.80;0.17;;;;;;;;;;5055534;28;20456;-67
2021/11/09 16:28:30;;;;;;;0.87;0.20;;;;;;;;;;5055736;28;20021;-66
2021/11/09 16:30:55;;;;;;;1.10;0.60;;;;;;;;;;5055601;28;20737;-67
2021/11/09 16:33:35;;;;;;;2.72;0.52;;;;;;;;;;5055420;28;20021;-68
2021/11/09 16:36:10;;;;;;;1.00;0.20;;;;;;;;;;5055651;28;20021;-68
2021/11/09 16:38:55;;;;;;;0.55;0.20;;;;;;;;;;5047163;28;20132;-68
2021/11/09 16:41:23;;;;;;;1.35;0.30;;;;;;;;;;5035540;28;20018;-67
2021/11/09 16:43:54;;;;;;;0.70;0.10;;;;;;;;;;5035204;28;20020;-67
2021/11/09 16:48:57;;;;;;;1.05;0.30;;;;;;;;;;5035327;28;20018;-68
2021/11/09 16:51:29;;;;;;;1.60;0.68;;;;;;;;;;5035177;28;20009;-67
2021/11/09 16:53:59;;;;;;;1.15;0.20;;;;;;;;;;5035090;28;20013;-66
2021/11/09 16:56:36;;;;;;;4.55;0.40;;;;;;;;;;5035396;28;20502;-67
2021/11/09 17:10:17;;;;;;;1.20;0.17;;;;;;;;;;4954640;29;20094;-66
2021/11/09 17:14:01;;;;;;;1.25;0.15;;;;;;;;;;4954578;29;20425;-66
2021/11/09 18:15:51;;;;;;;1.73;0.10;;;;;;;;;;5014355;28;20018;-67
2021/11/09 18:21:00;;;;;;;1.53;0.87;;;;;;;;;;5013904;28;20153;-66
2021/11/09 18:23:25;;;;;;;0.50;0.20;;;;;;;;;;5013855;28;20104;-67
2021/11/09 18:25:51;;;;;;;1.42;0.20;;;;;;;;;;5013811;28;20611;-67
2021/11/09 18:28:16;;;;;;;0.95;0.20;;;;;;;;;;5013917;28;20113;-67
2021/11/09 18:30:42;;;;;;;1.23;0.40;;;;;;;;;;5013931;28;20026;-67
2021/11/09 18:33:08;;;;;;;1.90;0.22;;;;;;;;;;5013637;28;20032;-68
2021/11/09 18:35:36;;;;;;;1.80;0.32;;;;;;;;;;5013706;28;20022;-67
2021/11/09 18:38:02;;;;;;;1.00;0.10;;;;;;;;;;5016972;28;20117;-67
2021/11/09 18:40:28;;;;;;;1.88;0.10;;;;;;;;;;5033502;28;20475;-67
2021/11/09 18:42:54;;;;;;;1.88;0.10;;;;;;;;;;5032915;28;20021;-67
2021/11/09 18:45:21;;;;;;;1.95;0.22;;;;;;;;;;5033439;28;20068;-67
2021/11/09 18:47:48;;;;;;;0.70;0.10;;;;;;;;;;5033104;28;20033;-66
2021/11/09 18:50:14;;;;;;;0.60;0.10;;;;;;;;;;5033101;28;20457;-65
2021/11/09 18:52:39;;;;;;;1.25;0.10;;;;;;;;;;5033319;28;20456;-66
2021/11/09 18:55:05;;;;;;;1.52;0.20;;;;;;;;;;5033261;28;20278;-66
2021/11/09 18:57:31;;;;;;;1.65;0.20;;;;;;;;;;5033410;28;20053;-66
2021/11/09 18:59:58;;;;;;;1.67;0.10;;;;;;;;;;5033122;28;20096;-66
2021/11/09 19:02:28;;;;;;;2.20;0.68;;;;;;;;;;5046728;28;20435;-66
2021/11/09 19:04:53;;;;;;;0.70;0.15;;;;;;;;;;5052939;28;20013;-67